RJSK(METAR)
08/12 21:00
METAR RJSK 121200Z VRB02KT 9999 FEW008 SCT040 BKN080 25/24 Q1007 RMK
1ST008 3CU040 6AC080 A2975=
戻る
トップページへ戻る
IMOC Co,.Ltd.